Time;durP1;ratioP1;P1;durP2;ratioP2;P2;SDS_P1;SDS_P2;PMS_P1;PMS_P2;Temp;Humidity;BMP_temperature;BMP_pressure;BME280_temperature;BME280_humidity;BME280_pressure;Samples;Min_cycle;Max_cycle;Signal;HPM_P1;HPM_P2
2023/04/17 00:01:38;;;;;;;25.98;15.10;;;;;;;12.27;70.09;102793.72;5007323;28;20160;-41
2023/04/17 00:04:09;;;;;;;29.08;16.60;;;;;;;12.20;70.09;102793.50;5004260;28;20029;-40
2023/04/17 00:06:38;;;;;;;28.80;16.10;;;;;;;12.13;70.83;102794.13;5003336;28;20022;-43
2023/04/17 00:09:03;;;;;;;29.92;15.40;;;;;;;12.07;70.81;102787.78;4999536;28;20040;-45
2023/04/17 00:11:29;;;;;;;27.42;15.30;;;;;;;12.26;70.25;102800.69;5002926;28;20133;-41
2023/04/17 00:13:54;;;;;;;29.52;15.88;;;;;;;12.11;70.29;102793.19;5003314;28;20473;-41
2023/04/17 00:16:19;;;;;;;26.38;15.30;;;;;;;12.25;70.20;102785.84;4999355;28;20041;-38
2023/04/17 00:18:45;;;;;;;29.40;16.27;;;;;;;12.07;70.42;102793.91;5003144;28;20038;-40
2023/04/17 00:21:10;;;;;;;29.50;16.45;;;;;;;11.80;71.89;102795.44;4999222;28;20026;-41
2023/04/17 00:23:35;;;;;;;29.67;16.13;;;;;;;11.81;71.56;102792.00;5002816;28;20037;-42
2023/04/17 00:26:01;;;;;;;28.00;15.57;;;;;;;11.77;71.83;102792.72;4999542;28;20285;-41
2023/04/17 00:28:26;;;;;;;32.97;16.63;;;;;;;11.83;71.58;102792.97;5007069;28;20041;-41
2023/04/17 00:30:51;;;;;;;31.15;15.98;;;;;;;11.85;72.07;102801.75;5006667;28;20030;-41
2023/04/17 00:33:17;;;;;;;32.45;15.60;;;;;;;12.16;70.65;102791.63;5001083;28;20037;-41
2023/04/17 00:35:42;;;;;;;34.05;15.95;;;;;;;12.01;71.40;102785.84;5002806;28;20045;-41
2023/04/17 00:38:08;;;;;;;30.52;16.05;;;;;;;11.77;72.12;102790.97;4999017;28;20068;-41
2023/04/17 00:40:34;;;;;;;28.95;15.43;;;;;;;11.98;71.54;102795.25;5002732;28;20452;-42
2023/04/17 00:43:00;;;;;;;28.63;15.40;;;;;;;11.89;71.64;102795.81;4999043;28;20030;-40
2023/04/17 00:45:25;;;;;;;30.38;15.45;;;;;;;11.50;72.26;102802.03;5003052;28;20034;-41
2023/04/17 00:47:52;;;;;;;33.05;15.95;;;;;;;11.33;73.64;102799.66;5002454;28;20030;-44
2023/04/17 00:50:17;;;;;;;29.35;14.80;;;;;;;11.39;73.27;102796.41;4999139;28;20461;-42
2023/04/17 00:52:44;;;;;;;31.80;15.80;;;;;;;11.66;72.37;102799.19;5002132;28;20124;-40
2023/04/17 00:55:09;;;;;;;30.98;15.18;;;;;;;11.52;73.18;102793.44;4999344;28;20044;-43
2023/04/17 00:57:35;;;;;;;30.88;15.80;;;;;;;11.11;73.63;102793.47;5004046;28;20034;-40
2023/04/17 01:00:01;;;;;;;31.00;16.08;;;;;;;11.03;74.38;102793.16;5000965;28;20034;-42
2023/04/17 01:02:26;;;;;;;30.70;15.20;;;;;;;11.33;73.69;102789.22;5004367;28;20044;-40
2023/04/17 01:04:52;;;;;;;30.35;14.95;;;;;;;11.69;72.35;102786.28;5005739;28;20103;-40
2023/04/17 01:07:17;;;;;;;27.00;15.30;;;;;;;11.43;72.67;102793.06;5003679;28;20140;-39
2023/04/17 01:09:42;;;;;;;30.80;15.40;;;;;;;11.52;72.67;102795.16;5007807;28;20040;-40
2023/04/17 01:12:19;;;;;;;31.48;14.98;;;;;;;11.48;72.52;102796.75;5004497;28;20454;-43
2023/04/17 01:14:45;;;;;;;29.63;14.90;;;;;;;11.46;72.34;102797.53;5005559;28;20034;-40
2023/04/17 01:17:14;;;;;;;31.33;15.30;;;;;;;11.29;73.09;102800.34;5000970;28;20454;-40
2023/04/17 01:19:40;;;;;;;31.10;15.27;;;;;;;11.27;73.71;102799.41;5004664;28;20069;-41
2023/04/17 01:22:06;;;;;;;28.73;15.07;;;;;;;11.71;71.83;102800.31;5001395;28;20459;-41
2023/04/17 01:24:31;;;;;;;29.63;15.32;;;;;;;11.72;72.00;102805.56;5007366;28;20125;-41
2023/04/17 01:26:57;;;;;;;29.95;15.35;;;;;;;11.72;72.11;102802.94;5003687;28;20115;-41
2023/04/17 01:29:22;;;;;;;31.58;15.18;;;;;;;11.59;72.19;102791.94;5007987;28;20073;-41
2023/04/17 01:31:47;;;;;;;32.65;15.70;;;;;;;11.54;72.54;102801.31;5006810;28;20093;-43
2023/04/17 01:34:13;;;;;;;33.13;16.10;;;;;;;11.53;72.92;102795.22;5002643;28;20040;-45
2023/04/17 01:36:38;;;;;;;30.30;15.45;;;;;;;11.25;73.62;102790.59;5004581;28;20037;-41
2023/04/17 01:39:03;;;;;;;29.30;14.77;;;;;;;11.43;73.05;102800.91;4998511;28;20034;-42
2023/04/17 01:41:28;;;;;;;31.40;14.75;;;;;;;11.17;74.11;102796.31;5001877;28;20495;-40
2023/04/17 01:43:54;;;;;;;30.98;15.43;;;;;;;11.22;73.69;102795.69;5002267;28;20044;-41
2023/04/17 01:46:19;;;;;;;32.90;15.75;;;;;;;11.32;73.41;102797.88;4998708;28;20116;-41
2023/04/17 01:48:44;;;;;;;30.90;15.13;;;;;;;11.16;73.68;102789.34;5001943;28;20034;-40
2023/04/17 01:51:10;;;;;;;33.47;15.00;;;;;;;11.40;73.76;102792.97;4998288;28;20033;-43
2023/04/17 01:53:36;;;;;;;32.15;15.63;;;;;;;11.52;72.62;102798.69;5002787;28;20460;-40
2023/04/17 01:56:02;;;;;;;30.80;14.52;;;;;;;11.88;71.84;102795.75;4998081;28;20034;-42
2023/04/17 01:58:27;;;;;;;30.05;14.55;;;;;;;11.76;72.29;102801.41;5001986;28;20092;-40
2023/04/17 02:00:53;;;;;;;32.65;15.38;;;;;;;11.40;72.96;102800.78;5002152;28;20026;-40
2023/04/17 02:03:18;;;;;;;31.23;14.82;;;;;;;11.59;73.17;102798.06;4997653;28;20120;-43
2023/04/17 02:05:45;;;;;;;32.15;14.23;;;;;;;11.50;73.15;102800.31;5005181;28;20469;-43
2023/04/17 02:08:10;;;;;;;27.88;13.63;;;;;;;11.20;73.58;102802.59;5001798;28;20037;-42
2023/04/17 02:10:36;;;;;;;30.63;13.93;;;;;;;11.17;73.65;102802.44;5005595;28;20504;-40
2023/04/17 02:13:01;;;;;;;30.35;14.23;;;;;;;11.02;74.16;102808.75;5001288;28;20627;-42
2023/04/17 02:15:26;;;;;;;27.35;14.00;;;;;;;11.70;72.33;102799.41;4988257;28;20084;-42
2023/04/17 02:17:51;;;;;;;27.20;13.70;;;;;;;11.78;71.47;102794.50;5005479;28;20026;-42
2023/04/17 02:20:17;;;;;;;26.60;13.88;;;;;;;11.46;72.77;102795.81;5002064;28;20455;-46
2023/04/17 02:22:42;;;;;;;26.92;14.00;;;;;;;11.28;73.59;102788.09;5008112;28;20056;-42
2023/04/17 02:25:07;;;;;;;27.77;13.98;;;;;;;11.20;73.48;102791.25;5005771;28;20034;-40
2023/04/17 02:27:33;;;;;;;33.20;14.45;;;;;;;11.29;73.14;102787.28;5009626;28;20408;-41
2023/04/17 02:29:58;;;;;;;30.45;14.70;;;;;;;11.47;72.72;102796.69;5002650;28;20396;-39
2023/04/17 02:32:23;;;;;;;27.38;14.15;;;;;;;11.48;72.47;102796.75;5005090;28;20072;-43
2023/04/17 02:34:49;;;;;;;29.30;14.60;;;;;;;11.27;73.57;102788.06;5004921;28;20058;-41
2023/04/17 02:37:14;;;;;;;30.63;15.52;;;;;;;11.28;72.96;102792.47;5001183;28;20042;-43
2023/04/17 02:39:40;;;;;;;28.75;14.65;;;;;;;11.17;73.70;102801.53;5004913;28;20030;-41
2023/04/17 02:42:05;;;;;;;31.00;14.98;;;;;;;11.32;73.50;102794.34;5001050;28;20124;-40
2023/04/17 02:44:30;;;;;;;26.08;14.10;;;;;;;11.20;73.52;102793.84;5004384;28;20042;-40
2023/04/17 02:46:55;;;;;;;27.40;13.57;;;;;;;11.18;73.43;102790.28;5001226;28;20080;-37
2023/04/17 02:49:21;;;;;;;25.63;13.85;;;;;;;11.28;73.41;102785.50;5003925;28;20129;-40
2023/04/17 02:51:46;;;;;;;26.88;14.10;;;;;;;11.08;74.03;102789.03;5004280;28;20056;-45
2023/04/17 02:54:12;;;;;;;25.88;14.13;;;;;;;11.23;73.75;102787.03;5000362;28;20029;-40
2023/04/17 02:56:37;;;;;;;27.63;14.50;;;;;;;11.22;73.47;102789.59;5004098;28;20030;-41
2023/04/17 02:59:02;;;;;;;28.05;14.38;;;;;;;11.28;73.40;102788.09;5001489;28;20091;-39
2023/04/17 03:01:28;;;;;;;26.50;14.27;;;;;;;11.27;73.55;102788.97;5004226;28;20392;-40
2023/04/17 03:03:54;;;;;;;26.52;13.50;;;;;;;11.44;73.44;102783.50;5004982;28;20091;-40
2023/04/17 03:06:20;;;;;;;26.38;13.68;;;;;;;11.28;73.56;102785.50;5000098;28;20045;-40
2023/04/17 03:08:46;;;;;;;28.88;14.45;;;;;;;11.04;74.32;102786.22;5003925;28;20038;-42
2023/04/17 03:11:11;;;;;;;28.85;14.75;;;;;;;11.40;73.02;102788.59;5000463;28;20396;-43
2023/04/17 03:13:37;;;;;;;28.88;14.20;;;;;;;11.48;72.92;102793.25;5004836;28;20132;-40
2023/04/17 03:16:03;;;;;;;28.40;14.77;;;;;;;11.57;72.45;102794.53;5001696;28;20096;-40
2023/04/17 03:18:29;;;;;;;27.58;14.63;;;;;;;11.47;72.91;102794.97;5007417;28;20033;-41
2023/04/17 03:20:55;;;;;;;30.58;15.05;;;;;;;11.54;72.71;102790.88;5004809;28;20034;-40
2023/04/17 03:23:20;;;;;;;27.73;14.75;;;;;;;11.85;71.91;102782.56;5000894;28;20038;-41
2023/04/17 03:25:45;;;;;;;32.35;15.35;;;;;;;11.74;71.90;102787.38;5004770;28;20042;-43
2023/04/17 03:28:11;;;;;;;29.45;15.25;;;;;;;11.54;72.13;102780.44;5001938;28;20385;-41
2023/04/17 03:30:36;;;;;;;30.20;15.55;;;;;;;11.21;74.21;102780.88;5008700;28;20045;-40
2023/04/17 03:33:01;;;;;;;33.63;15.45;;;;;;;11.16;73.92;102789.34;5001152;28;20510;-41
2023/04/17 03:35:27;;;;;;;30.23;14.75;;;;;;;11.57;73.08;102794.53;5003610;28;20033;-39
2023/04/17 03:37:52;;;;;;;29.45;15.13;;;;;;;11.31;73.27;102795.19;5004190;28;20094;-41
2023/04/17 03:40:17;;;;;;;25.85;13.77;;;;;;;11.31;73.22;102784.75;5000247;28;20044;-41
2023/04/17 03:42:43;;;;;;;27.42;13.80;;;;;;;11.56;72.39;102791.84;5003848;28;20485;-43
2023/04/17 03:45:09;;;;;;;26.40;14.30;;;;;;;11.37;72.78;102795.44;5000772;28;20046;-41
2023/04/17 03:47:34;;;;;;;27.48;14.07;;;;;;;11.21;72.91;102790.44;5003563;28;20451;-40
2023/04/17 03:49:59;;;;;;;27.55;14.45;;;;;;;11.46;72.83;102800.16;5000727;28;20029;-40
2023/04/17 03:52:25;;;;;;;29.35;14.10;;;;;;;11.20;73.38;102796.47;5004592;28;20501;-40
2023/04/17 03:54:50;;;;;;;28.30;14.25;;;;;;;11.20;73.53;102796.47;5005642;28;20026;-40
2023/04/17 03:57:15;;;;;;;25.40;13.48;;;;;;;11.01;74.38;102804.34;5002773;28;20046;-42
2023/04/17 03:59:41;;;;;;;23.95;12.90;;;;;;;11.06;74.41;102802.81;5008352;28;20034;-40
2023/04/17 04:02:06;;;;;;;24.83;13.70;;;;;;;11.15;73.59;102808.44;5003572;28;20044;-41
2023/04/17 04:04:31;;;;;;;23.02;12.82;;;;;;;11.37;73.57;102798.94;5004600;28;20030;-43
2023/04/17 04:06:57;;;;;;;26.17;13.32;;;;;;;11.44;72.78;102794.84;4999513;28;20512;-38
2023/04/17 04:09:24;;;;;;;24.65;13.55;;;;;;;11.35;72.93;102797.06;5003579;28;20026;-40
2023/04/17 04:11:49;;;;;;;26.10;13.70;;;;;;;11.60;72.42;102804.19;5003021;28;20057;-45
2023/04/17 04:14:15;;;;;;;26.73;13.85;;;;;;;11.67;71.73;102795.75;4999403;28;24541;-41
2023/04/17 04:16:41;;;;;;;27.70;14.15;;;;;;;11.52;72.53;102801.28;5002677;28;20034;-42
2023/04/17 04:19:06;;;;;;;24.00;13.75;;;;;;;11.58;72.78;102805.88;4999558;28;20034;-40
2023/04/17 04:21:32;;;;;;;25.42;14.20;;;;;;;11.39;73.40;102799.00;5002618;28;20041;-40
2023/04/17 04:23:57;;;;;;;27.85;14.27;;;;;;;11.24;73.65;102803.59;4999677;28;20129;-39
2023/04/17 04:26:23;;;;;;;27.35;14.55;;;;;;;11.27;74.03;102806.34;4985244;28;20095;-41
2023/04/17 04:28:48;;;;;;;28.40;14.48;;;;;;;11.27;73.39;102803.72;5003042;28;20033;-42
2023/04/17 04:31:17;;;;;;;28.80;14.63;;;;;;;11.31;73.45;102803.00;4999392;28;20200;-42
2023/04/17 04:33:43;;;;;;;26.88;14.30;;;;;;;11.16;73.47;102799.78;5002961;28;20510;-43
2023/04/17 04:36:12;;;;;;;29.45;14.43;;;;;;;10.97;74.06;102809.47;4998998;28;20068;-42
2023/04/17 04:38:38;;;;;;;32.50;14.98;;;;;;;11.25;73.75;102810.59;5001589;28;20125;-41
2023/04/17 04:41:09;;;;;;;30.92;15.15;;;;;;;11.04;74.00;102815.78;4998938;28;20034;-41
2023/04/17 04:43:35;;;;;;;32.17;15.00;;;;;;;11.03;74.15;102819.25;5002657;28;20400;-40
2023/04/17 04:46:01;;;;;;;29.88;14.52;;;;;;;11.08;73.33;102819.44;5000149;28;20407;-40
2023/04/17 04:48:27;;;;;;;28.52;14.55;;;;;;;10.91;74.28;102826.56;5005028;28;20125;-40
2023/04/17 04:50:54;;;;;;;28.55;14.25;;;;;;;10.93;74.56;102817.06;5008500;28;20093;-41
2023/04/17 04:53:19;;;;;;;30.67;15.45;;;;;;;11.26;73.29;102815.88;5007689;28;20571;-43
2023/04/17 04:55:44;;;;;;;30.33;15.27;;;;;;;11.23;73.44;102813.13;5004162;28;20064;-41
2023/04/17 04:58:10;;;;;;;31.05;15.30;;;;;;;11.37;73.23;102806.78;4999383;28;20064;-43
2023/04/17 05:00:35;;;;;;;31.27;15.73;;;;;;;11.25;73.21;102811.50;5002097;28;20099;-40
2023/04/17 05:03:01;;;;;;;31.92;15.23;;;;;;;11.44;72.33;102817.47;4998524;28;20451;-41
2023/04/17 05:05:27;;;;;;;31.65;15.40;;;;;;;11.66;71.79;102821.00;5002454;28;20034;-43
2023/04/17 05:07:53;;;;;;;31.30;15.10;;;;;;;11.67;71.42;102824.50;5002193;28;20388;-41
2023/04/17 05:10:19;;;;;;;33.63;15.70;;;;;;;11.82;71.02;102830.38;4998624;28;20041;-42
2023/04/17 05:12:45;;;;;;;30.60;14.95;;;;;;;11.38;72.14;102821.63;5002690;28;20122;-43
2023/04/17 05:15:10;;;;;;;28.95;15.02;;;;;;;11.59;71.89;102831.13;5004113;28;20101;-40
2023/04/17 05:17:36;;;;;;;32.78;14.90;;;;;;;11.68;71.41;102836.75;5006542;28;20041;-40
2023/04/17 05:20:05;;;;;;;30.17;15.48;;;;;;;11.48;72.49;102837.66;5000287;28;20038;-42
2023/04/17 05:22:31;;;;;;;30.25;15.77;;;;;;;11.71;71.75;102839.50;5004512;28;20121;-40
2023/04/17 05:24:56;;;;;;;32.63;15.95;;;;;;;11.37;73.27;102847.66;5002137;28;20087;-41
2023/04/17 05:27:22;;;;;;;31.80;15.43;;;;;;;11.60;72.69;102843.38;5001925;28;20034;-41
2023/04/17 05:29:47;;;;;;;32.42;15.65;;;;;;;11.64;72.09;102850.53;5001721;28;20034;-41
2023/04/17 05:32:12;;;;;;;33.78;15.88;;;;;;;11.79;72.18;102843.31;4999615;28;20404;-40
2023/04/17 05:34:38;;;;;;;30.02;15.05;;;;;;;12.01;71.28;102848.56;5003587;28;20036;-42
2023/04/17 05:37:03;;;;;;;31.17;15.68;;;;;;;11.88;71.07;102851.53;4999297;28;20022;-42
2023/04/17 05:39:28;;;;;;;30.30;15.60;;;;;;;11.97;71.41;102849.25;5006112;28;20361;-41
2023/04/17 05:41:54;;;;;;;42.95;25.65;;;;;;;12.22;70.47;102845.88;5006249;28;20634;-40
2023/04/17 05:44:19;;;;;;;29.08;16.35;;;;;;;12.13;70.59;102845.53;5002670;28;20448;-41
2023/04/17 05:46:44;;;;;;;31.35;16.17;;;;;;;11.95;71.03;102845.72;5005216;28;20042;-40
2023/04/17 05:49:10;;;;;;;28.17;15.20;;;;;;;12.17;70.28;102843.09;5001594;28;20389;-38
2023/04/17 05:51:35;;;;;;;29.08;15.25;;;;;;;12.03;70.70;102846.00;5003355;28;20096;-41
2023/04/17 05:54:02;;;;;;;29.77;15.60;;;;;;;12.26;70.38;102849.50;4998786;28;20564;-42
2023/04/17 05:56:27;;;;;;;27.60;15.63;;;;;;;12.28;69.45;102835.63;5000915;28;20117;-40
2023/04/17 05:58:52;;;;;;;26.45;14.82;;;;;;;12.46;69.91;102844.16;5001709;28;20507;-40
2023/04/17 06:01:21;;;;;;;27.10;14.68;;;;;;;12.52;69.24;102849.63;4997612;28;20133;-40
2023/04/17 06:03:46;;;;;;;26.77;14.95;;;;;;;12.42;69.75;102851.84;5001240;28;20041;-41
2023/04/17 06:06:12;;;;;;;28.13;15.10;;;;;;;12.36;69.31;102856.84;4998009;28;20034;-42
2023/04/17 06:08:37;;;;;;;25.90;15.35;;;;;;;12.50;68.71;102863.50;5001395;28;20048;-43
2023/04/17 06:11:02;;;;;;;28.52;15.07;;;;;;;12.39;69.25;102862.19;4997566;28;20045;-41
2023/04/17 06:13:28;;;;;;;27.45;15.50;;;;;;;12.43;69.09;102867.63;5000807;28;20061;-44
2023/04/17 06:15:53;;;;;;;27.50;14.90;;;;;;;12.38;69.17;102870.91;5002172;28;20065;-41
2023/04/17 06:18:19;;;;;;;28.13;15.98;;;;;;;12.31;69.46;102866.25;4997549;28;20034;-41
2023/04/17 06:20:45;;;;;;;28.02;15.82;;;;;;;12.35;69.39;102869.03;5001182;28;20062;-43
2023/04/17 06:23:10;;;;;;;31.08;15.82;;;;;;;12.41;69.08;102864.03;4997279;28;20034;-40
2023/04/17 06:25:36;;;;;;;27.23;14.85;;;;;;;12.56;69.07;102868.97;5001318;28;20092;-45
2023/04/17 06:28:01;;;;;;;28.67;16.17;;;;;;;12.54;68.66;102862.78;4997528;28;20341;-41
2023/04/17 06:30:27;;;;;;;27.40;15.52;;;;;;;12.66;68.39;102862.31;5001661;28;20053;-42
2023/04/17 06:32:52;;;;;;;30.05;15.65;;;;;;;12.60;68.23;102865.63;5001242;28;20049;-42
2023/04/17 06:35:17;;;;;;;28.80;15.65;;;;;;;12.53;68.44;102864.50;4997859;28;20511;-41
2023/04/17 06:37:43;;;;;;;26.20;15.48;;;;;;;12.45;68.68;102860.69;5000918;28;20045;-41
2023/04/17 06:40:11;;;;;;;31.42;16.35;;;;;;;12.56;68.60;102866.34;4997640;28;20571;-41
2023/04/17 06:42:36;;;;;;;27.65;15.82;;;;;;;12.69;67.83;102868.56;4997923;28;20404;-42
2023/04/17 06:45:01;;;;;;;26.63;16.02;;;;;;;12.73;67.62;102872.19;4997485;28;20034;-42
2023/04/17 06:47:27;;;;;;;28.23;15.70;;;;;;;12.49;68.60;102873.06;5001441;28;20026;-38
2023/04/17 06:49:52;;;;;;;24.83;15.32;;;;;;;12.47;68.55;102874.72;5001915;28;20041;-40
2023/04/17 06:52:21;;;;;;;25.38;15.57;;;;;;;12.76;67.66;102881.03;5001436;28;20034;-40
2023/04/17 06:54:46;;;;;;;26.98;15.68;;;;;;;12.82;67.24;102889.09;5004608;28;20040;-43
2023/04/17 06:57:12;;;;;;;25.88;15.30;;;;;;;12.75;67.50;102888.81;5000989;28;20034;-41
2023/04/17 06:59:37;;;;;;;27.35;15.30;;;;;;;12.62;67.34;102894.47;5004796;28;20041;-43
2023/04/17 07:02:03;;;;;;;26.00;15.38;;;;;;;12.91;67.05;102899.91;5000757;28;20125;-41
2023/04/17 07:04:31;;;;;;;26.48;15.35;;;;;;;12.74;67.08;102903.66;5004372;28;20026;-42
2023/04/17 07:06:57;;;;;;;24.85;15.88;;;;;;;12.73;67.02;102898.38;5001715;28;20030;-38
2023/04/17 07:09:23;;;;;;;24.75;16.05;;;;;;;12.69;66.95;102904.28;5005059;28;20034;-43
2023/04/17 07:11:48;;;;;;;26.70;16.25;;;;;;;12.98;66.44;102899.31;5005909;28;20330;-41
2023/04/17 07:14:14;;;;;;;28.00;16.20;;;;;;;12.73;66.92;102906.22;5005441;28;20053;-40
2023/04/17 07:16:39;;;;;;;29.75;17.55;;;;;;;12.37;67.69;102906.63;5009944;28;20089;-41
2023/04/17 07:19:04;;;;;;;29.83;18.10;;;;;;;12.65;67.39;102905.91;5005499;28;20033;-41
2023/04/17 07:21:31;;;;;;;29.20;17.10;;;;;;;12.81;67.25;102902.13;5005730;28;20026;-41
2023/04/17 07:23:56;;;;;;;31.38;18.20;;;;;;;13.08;66.18;102904.84;4998520;28;20084;-38
2023/04/17 07:26:22;;;;;;;30.55;18.15;;;;;;;13.16;66.44;102906.97;5007798;28;20025;-41
2023/04/17 07:28:47;;;;;;;30.20;17.33;;;;;;;13.18;66.38;102901.75;5007733;28;20041;-41
2023/04/17 07:31:12;;;;;;;31.25;17.83;;;;;;;13.20;66.20;102910.56;5001970;28;20034;-42
2023/04/17 07:33:37;;;;;;;29.35;17.13;;;;;;;13.15;65.83;102912.13;5003508;28;20065;-40
2023/04/17 07:36:04;;;;;;;33.03;18.38;;;;;;;13.09;66.21;102909.25;5001180;28;20084;-38
2023/04/17 07:38:31;;;;;;;32.45;18.88;;;;;;;13.18;65.45;102907.88;5004407;28;20034;-42
2023/04/17 07:40:56;;;;;;;32.22;19.05;;;;;;;12.76;67.06;102914.16;5002758;28;20133;-40
2023/04/17 07:43:22;;;;;;;31.08;19.05;;;;;;;13.14;66.03;102908.63;5005524;28;20089;-43
2023/04/17 07:45:47;;;;;;;34.38;19.67;;;;;;;13.18;65.83;102920.09;5006968;28;20065;-40
2023/04/17 07:48:13;;;;;;;34.40;19.40;;;;;;;12.66;67.38;102917.28;5006088;28;20092;-41
2023/04/17 07:50:38;;;;;;;31.83;18.77;;;;;;;12.90;67.18;102916.47;5012962;28;20032;-44
2023/04/17 07:53:04;;;;;;;32.10;19.42;;;;;;;13.02;66.33;102921.25;5016952;28;20041;-45
2023/04/17 07:55:29;;;;;;;33.20;19.38;;;;;;;13.34;65.54;102915.47;5014852;28;20513;-41
2023/04/17 07:57:54;;;;;;;36.05;19.65;;;;;;;13.21;65.75;102921.09;5005860;28;20038;-43
2023/04/17 08:00:20;;;;;;;33.65;19.10;;;;;;;13.34;65.82;102911.94;5002784;28;20034;-41
2023/04/17 08:02:45;;;;;;;33.90;20.17;;;;;;;13.11;66.27;102915.47;5005046;28;20037;-40
2023/04/17 08:05:11;;;;;;;31.67;19.05;;;;;;;13.26;66.10;102918.63;5003260;28;20085;-40
2023/04/17 08:07:36;;;;;;;28.27;17.15;;;;;;;12.70;67.44;102917.44;5005827;28;20233;-42
2023/04/17 08:10:03;;;;;;;29.13;17.23;;;;;;;12.92;67.28;102922.66;5002718;28;20481;-40
2023/04/17 08:12:28;;;;;;;28.70;17.13;;;;;;;12.88;66.97;102923.34;5006231;28;20060;-40
2023/04/17 08:14:54;;;;;;;26.77;16.85;;;;;;;12.93;66.73;102919.16;5007055;28;20116;-41
2023/04/17 08:17:21;;;;;;;27.55;16.77;;;;;;;13.40;65.96;102923.53;5000509;28;20026;-42
2023/04/17 08:19:49;;;;;;;29.85;17.77;;;;;;;13.28;65.63;102928.34;5002932;28;20053;-44
2023/04/17 08:22:15;;;;;;;28.23;17.42;;;;;;;13.05;66.65;102924.00;4981438;28;20036;-41
2023/04/17 08:24:41;;;;;;;30.63;17.73;;;;;;;13.24;65.85;102918.56;5002042;28;20041;-41
2023/04/17 08:27:06;;;;;;;29.05;17.65;;;;;;;13.38;64.76;102914.72;4998825;28;20408;-42
2023/04/17 08:29:32;;;;;;;29.33;17.73;;;;;;;13.40;64.97;102918.28;5002662;28;20042;-42
2023/04/17 08:31:57;;;;;;;29.88;17.65;;;;;;;13.81;64.32;102909.16;4999414;28;20109;-40
2023/04/17 08:34:22;;;;;;;29.52;16.92;;;;;;;14.47;62.71;102919.13;5003001;28;20022;-40
2023/04/17 08:36:48;;;;;;;26.98;16.85;;;;;;;14.75;61.46;102919.09;5002164;28;20036;-40
2023/04/17 08:39:15;;;;;;;27.27;17.38;;;;;;;14.90;60.21;102910.75;4981211;28;20492;-42
2023/04/17 08:41:50;;;;;;;27.10;17.70;;;;;;;14.82;60.21;102923.66;5001517;28;20037;-43
2023/04/17 08:44:20;;;;;;;29.05;17.80;;;;;;;14.33;60.78;102921.31;4997994;28;20038;-39
2023/04/17 08:46:46;;;;;;;29.58;17.75;;;;;;;14.42;61.90;102918.09;5002086;28;20411;-40
2023/04/17 08:49:11;;;;;;;33.17;18.85;;;;;;;14.45;61.32;102926.97;4999017;28;20381;-40
2023/04/17 08:51:37;;;;;;;32.45;18.58;;;;;;;13.84;63.17;102925.84;5002205;28;20133;-41
2023/04/17 08:54:02;;;;;;;30.48;18.10;;;;;;;14.04;62.88;102929.97;4998133;28;20058;-43
2023/04/17 08:56:28;;;;;;;29.77;18.10;;;;;;;14.35;62.13;102937.06;5002384;28;20038;-38
2023/04/17 08:58:53;;;;;;;32.25;18.42;;;;;;;14.09;62.07;102925.75;5002952;28;20054;-42
2023/04/17 09:01:19;;;;;;;31.33;18.73;;;;;;;14.31;61.77;102925.59;4998570;28;20040;-41
2023/04/17 09:03:50;;;;;;;30.00;17.27;;;;;;;14.75;60.38;102926.09;5002088;28;20052;-39
2023/04/17 09:06:15;;;;;;;28.98;17.70;;;;;;;15.14;59.30;102919.28;4998604;28;20029;-44
2023/04/17 09:09:13;;;;;;;31.48;18.80;;;;;;;14.58;60.37;102933.44;5001446;28;20045;-40
2023/04/17 09:11:38;;;;;;;30.65;18.83;;;;;;;14.16;61.93;102931.25;4955186;28;20069;-43
2023/04/17 09:14:03;;;;;;;33.03;19.40;;;;;;;14.63;60.95;102939.75;4996997;28;20120;-38
2023/04/17 09:16:29;;;;;;;33.75;19.25;;;;;;;14.12;61.41;102932.00;5002928;28;20060;-39
2023/04/17 09:19:05;;;;;;;32.08;18.80;;;;;;;14.64;60.85;102936.25;5003235;28;20116;-39
2023/04/17 09:21:31;;;;;;;30.73;18.75;;;;;;;14.06;61.74;102938.81;4999335;28;20492;-42
2023/04/17 09:23:58;;;;;;;34.08;18.52;;;;;;;14.27;61.49;102943.84;5004445;22;20045;-76
2023/04/17 09:26:30;;;;;;;32.53;18.38;;;;;;;14.79;61.34;102941.06;4973262;28;20029;-77
2023/04/17 09:29:03;;;;;;;30.77;18.88;;;;;;;14.39;60.06;102949.50;5000508;28;20038;-78
2023/04/17 09:31:30;;;;;;;31.92;18.58;;;;;;;14.34;59.79;102949.31;4980590;28;20036;-78
2023/04/17 09:33:59;;;;;;;30.40;18.98;;;;;;;14.76;59.60;102947.09;4979519;28;20462;-77
2023/04/17 09:36:30;;;;;;;31.58;19.63;;;;;;;14.99;58.16;102946.06;4998832;28;20412;-78
2023/04/17 09:38:58;;;;;;;31.88;18.45;;;;;;;15.23;57.98;102944.94;4981875;28;20061;-76
2023/04/17 09:41:24;;;;;;;33.15;19.60;;;;;;;15.19;56.97;102949.22;4995938;28;20188;-78
2023/04/17 09:44:04;;;;;;;31.05;19.05;;;;;;;15.29;57.02;102945.13;4998958;28;20042;-76
2023/04/17 09:46:50;;;;;;;29.35;18.88;;;;;;;15.30;57.31;102946.91;4996872;28;20080;-77
2023/04/17 09:49:51;;;;;;;30.75;18.50;;;;;;;15.81;56.81;102942.09;4981493;28;20438;-77
2023/04/17 09:52:22;;;;;;;33.50;18.55;;;;;;;16.01;55.52;102945.22;4967814;28;20050;-76
2023/04/17 09:54:52;;;;;;;29.77;18.75;;;;;;;16.16;54.90;102949.09;4998731;28;20084;-77
2023/04/17 09:57:18;;;;;;;33.85;19.27;;;;;;;16.16;54.44;102957.00;4977344;28;20057;-77
2023/04/17 09:59:48;;;;;;;29.98;19.05;;;;;;;15.82;54.98;102965.81;4999707;28;20034;-76
2023/04/17 10:02:18;;;;;;;29.80;18.92;;;;;;;16.33;54.04;102957.41;4977341;28;20129;-77
2023/04/17 10:04:45;;;;;;;33.33;18.65;;;;;;;16.04;54.28;102959.34;4999080;28;20113;-74
2023/04/17 10:07:17;;;;;;;30.63;19.10;;;;;;;16.01;54.96;102955.75;4994150;28;20036;-75
2023/04/17 10:09:46;;;;;;;30.45;18.58;;;;;;;16.50;53.79;102957.78;5000935;28;20034;-76
2023/04/17 10:12:19;;;;;;;32.38;19.33;;;;;;;16.58;52.99;102956.22;4979133;28;20040;-75
2023/04/17 10:14:47;;;;;;;31.60;19.88;;;;;;;16.98;52.27;102953.56;5000664;28;20045;-76
2023/04/17 10:17:35;;;;;;;33.67;19.88;;;;;;;17.04;52.45;102956.31;4977089;28;20034;-75
2023/04/17 10:20:29;;;;;;;32.65;18.90;;;;;;;16.89;52.46;102957.78;4993494;28;20490;-75
2023/04/17 10:22:55;;;;;;;30.35;19.67;;;;;;;17.10;53.17;102946.75;4981630;28;20030;-76
2023/04/17 10:25:25;;;;;;;35.25;20.35;;;;;;;16.62;52.66;102942.28;4977802;28;20041;-76
2023/04/17 10:28:09;;;;;;;31.23;19.80;;;;;;;16.63;52.45;102942.31;5003129;28;20046;-76
2023/04/17 10:30:52;;;;;;;31.92;20.42;;;;;;;16.33;54.14;102944.25;5001097;28;20038;-77
2023/04/17 10:33:23;;;;;;;33.83;20.92;;;;;;;16.22;54.53;102937.84;4997126;28;20049;-76
2023/04/17 10:35:52;;;;;;;33.42;19.92;;;;;;;16.12;55.55;102942.00;5001896;28;20038;-76
2023/04/17 10:38:34;;;;;;;32.83;19.92;;;;;;;16.31;53.94;102945.03;4974195;28;20499;-76
2023/04/17 10:41:02;;;;;;;30.17;19.10;;;;;;;16.35;54.36;102942.50;4994163;28;20065;-75
2023/04/17 10:43:28;;;;;;;34.33;19.80;;;;;;;16.39;54.46;102951.38;4985364;28;20029;-76
2023/04/17 10:46:11;;;;;;;32.50;21.17;;;;;;;16.21;54.44;102949.22;5002971;28;20092;-76
2023/04/17 10:48:52;;;;;;;31.45;20.02;;;;;;;16.64;53.82;102953.75;4985754;28;20045;-76
2023/04/17 10:51:20;;;;;;;29.38;19.35;;;;;;;16.56;54.06;102939.47;4981707;28;20060;-76
2023/04/17 10:53:45;;;;;;;32.83;20.05;;;;;;;16.89;53.43;102942.88;5002744;28;20041;-75
2023/04/17 10:56:17;;;;;;;30.05;19.42;;;;;;;16.82;52.95;102943.59;4980359;28;20026;-74
2023/04/17 10:58:58;;;;;;;29.80;19.88;;;;;;;16.86;53.00;102934.00;5001100;28;20514;-77
2023/04/17 11:01:36;;;;;;;30.38;20.17;;;;;;;16.18;53.22;102931.59;4996358;28;20033;-75
2023/04/17 11:04:06;;;;;;;31.52;20.40;;;;;;;16.92;52.49;102931.47;4997926;28;20171;-75
2023/04/17 11:06:36;;;;;;;30.10;20.05;;;;;;;16.68;52.75;102925.72;4987285;28;20030;-76
2023/04/17 11:09:05;;;;;;;32.85;20.85;;;;;;;16.64;52.33;102930.03;4977497;28;20029;-76